sensor_id;sensor_type;location;lat;lon;timestamp;pressure;altitude;pressure_sealevel;temperature;humidity
73941;BME280;62294;48.554;10.202;2023-08-31T00:01:22;94940.50;;;12.20;100.00
73941;BME280;62294;48.554;10.202;2023-08-31T00:03:49;94935.44;;;12.23;100.00
73941;BME280;62294;48.554;10.202;2023-08-31T00:06:16;94925.38;;;12.30;100.00
73941;BME280;62294;48.554;10.202;2023-08-31T00:08:43;94934.13;;;12.26;100.00
73941;BME280;62294;48.554;10.202;2023-08-31T00:11:09;94944.25;;;12.24;100.00
73941;BME280;62294;48.554;10.202;2023-08-31T00:13:36;94933.59;;;12.24;100.00
73941;BME280;62294;48.554;10.202;2023-08-31T00:16:02;94940.75;;;12.18;100.00
73941;BME280;62294;48.554;10.202;2023-08-31T00:18:29;94950.34;;;12.19;100.00
73941;BME280;62294;48.554;10.202;2023-08-31T00:20:56;94945.28;;;12.18;100.00
73941;BME280;62294;48.554;10.202;2023-08-31T00:23:22;94952.00;;;12.25;100.00
73941;BME280;62294;48.554;10.202;2023-08-31T00:25:52;94961.53;;;12.16;100.00
73941;BME280;62294;48.554;10.202;2023-08-31T00:28:19;94965.19;;;12.10;100.00
73941;BME280;62294;48.554;10.202;2023-08-31T00:30:46;94957.75;;;12.12;100.00
73941;BME280;62294;48.554;10.202;2023-08-31T00:33:14;94960.19;;;12.19;100.00
73941;BME280;62294;48.554;10.202;2023-08-31T00:35:41;94962.09;;;12.23;100.00
73941;BME280;62294;48.554;10.202;2023-08-31T00:38:13;94960.00;;;12.25;100.00
73941;BME280;62294;48.554;10.202;2023-08-31T00:40:41;94972.75;;;12.23;100.00
73941;BME280;62294;48.554;10.202;2023-08-31T00:43:12;94955.75;;;12.29;100.00
73941;BME280;62294;48.554;10.202;2023-08-31T00:45:42;94947.19;;;12.22;100.00
73941;BME280;62294;48.554;10.202;2023-08-31T00:48:09;94944.38;;;12.02;100.00
73941;BME280;62294;48.554;10.202;2023-08-31T00:50:36;94933.94;;;11.95;100.00
73941;BME280;62294;48.554;10.202;2023-08-31T00:53:03;94937.69;;;11.99;100.00
73941;BME280;62294;48.554;10.202;2023-08-31T00:55:30;94953.66;;;11.99;100.00
73941;BME280;62294;48.554;10.202;2023-08-31T00:57:58;94956.91;;;11.75;100.00
73941;BME280;62294;48.554;10.202;2023-08-31T01:00:45;94957.97;;;11.74;100.00
73941;BME280;62294;48.554;10.202;2023-08-31T01:03:43;94962.47;;;11.73;100.00
73941;BME280;62294;48.554;10.202;2023-08-31T01:09:13;94957.50;;;11.82;100.00
73941;BME280;62294;48.554;10.202;2023-08-31T01:14:23;94949.69;;;11.70;100.00
73941;BME280;62294;48.554;10.202;2023-08-31T01:16:53;94951.53;;;11.70;100.00
73941;BME280;62294;48.554;10.202;2023-08-31T01:19:39;94940.47;;;11.83;100.00
73941;BME280;62294;48.554;10.202;2023-08-31T01:22:11;94936.22;;;11.87;100.00
73941;BME280;62294;48.554;10.202;2023-08-31T01:24:38;94952.91;;;11.77;100.00
73941;BME280;62294;48.554;10.202;2023-08-31T01:27:05;94959.00;;;11.73;100.00
73941;BME280;62294;48.554;10.202;2023-08-31T01:29:31;94958.34;;;11.61;100.00
73941;BME280;62294;48.554;10.202;2023-08-31T01:31:58;94967.38;;;11.60;100.00
73941;BME280;62294;48.554;10.202;2023-08-31T01:34:25;94969.22;;;11.59;100.00
73941;BME280;62294;48.554;10.202;2023-08-31T01:36:56;94972.63;;;11.55;100.00
73941;BME280;62294;48.554;10.202;2023-08-31T01:39:33;94973.44;;;11.55;100.00
73941;BME280;62294;48.554;10.202;2023-08-31T01:42:03;94983.66;;;11.63;100.00
73941;BME280;62294;48.554;10.202;2023-08-31T01:44:33;94978.06;;;11.65;100.00
73941;BME280;62294;48.554;10.202;2023-08-31T01:47:03;94979.50;;;11.51;100.00
73941;BME280;62294;48.554;10.202;2023-08-31T01:49:36;94982.16;;;11.51;100.00
73941;BME280;62294;48.554;10.202;2023-08-31T01:52:03;94976.25;;;11.43;100.00
73941;BME280;62294;48.554;10.202;2023-08-31T01:54:30;94986.19;;;11.53;100.00
73941;BME280;62294;48.554;10.202;2023-08-31T01:56:57;94990.91;;;11.68;100.00
73941;BME280;62294;48.554;10.202;2023-08-31T01:59:24;95002.03;;;11.65;100.00
73941;BME280;62294;48.554;10.202;2023-08-31T02:01:50;95002.22;;;11.58;100.00
73941;BME280;62294;48.554;10.202;2023-08-31T02:04:17;94992.16;;;11.38;100.00
73941;BME280;62294;48.554;10.202;2023-08-31T02:06:44;95004.34;;;11.34;100.00
73941;BME280;62294;48.554;10.202;2023-08-31T02:09:10;94999.41;;;11.43;100.00
73941;BME280;62294;48.554;10.202;2023-08-31T02:11:37;94994.38;;;11.47;100.00
73941;BME280;62294;48.554;10.202;2023-08-31T02:14:04;94997.47;;;11.38;100.00
73941;BME280;62294;48.554;10.202;2023-08-31T02:16:31;94991.50;;;11.26;100.00
73941;BME280;62294;48.554;10.202;2023-08-31T02:18:58;95001.25;;;11.21;100.00
73941;BME280;62294;48.554;10.202;2023-08-31T02:21:25;94994.16;;;11.05;100.00
73941;BME280;62294;48.554;10.202;2023-08-31T02:23:52;94991.66;;;10.98;100.00
73941;BME280;62294;48.554;10.202;2023-08-31T02:26:18;95005.88;;;10.87;100.00
73941;BME280;62294;48.554;10.202;2023-08-31T02:28:44;95013.16;;;10.75;100.00
73941;BME280;62294;48.554;10.202;2023-08-31T02:31:13;95015.19;;;10.68;100.00
73941;BME280;62294;48.554;10.202;2023-08-31T02:33:39;95014.63;;;10.66;100.00
73941;BME280;62294;48.554;10.202;2023-08-31T02:36:06;95001.25;;;10.61;100.00
73941;BME280;62294;48.554;10.202;2023-08-31T02:38:33;95002.72;;;10.52;100.00
73941;BME280;62294;48.554;10.202;2023-08-31T02:41:00;95018.66;;;10.52;100.00
73941;BME280;62294;48.554;10.202;2023-08-31T02:43:26;95021.75;;;10.44;100.00
73941;BME280;62294;48.554;10.202;2023-08-31T02:46:02;95024.00;;;10.35;100.00
73941;BME280;62294;48.554;10.202;2023-08-31T02:48:32;95012.75;;;10.28;100.00
73941;BME280;62294;48.554;10.202;2023-08-31T02:50:59;95016.03;;;10.19;100.00
73941;BME280;62294;48.554;10.202;2023-08-31T02:53:32;95021.81;;;10.16;100.00
73941;BME280;62294;48.554;10.202;2023-08-31T02:55:58;95026.09;;;10.17;100.00
73941;BME280;62294;48.554;10.202;2023-08-31T02:58:25;95021.50;;;10.12;100.00
73941;BME280;62294;48.554;10.202;2023-08-31T03:00:52;95021.84;;;10.04;100.00
73941;BME280;62294;48.554;10.202;2023-08-31T03:03:19;95020.41;;;9.96;100.00
73941;BME280;62294;48.554;10.202;2023-08-31T03:05:46;95024.25;;;9.89;100.00
73941;BME280;62294;48.554;10.202;2023-08-31T03:08:13;95022.56;;;9.83;100.00
73941;BME280;62294;48.554;10.202;2023-08-31T03:10:40;95017.16;;;9.78;100.00
73941;BME280;62294;48.554;10.202;2023-08-31T03:13:06;95016.81;;;9.74;100.00
73941;BME280;62294;48.554;10.202;2023-08-31T03:15:33;95013.53;;;9.67;100.00
73941;BME280;62294;48.554;10.202;2023-08-31T03:18:00;95028.25;;;9.58;100.00
73941;BME280;62294;48.554;10.202;2023-08-31T03:20:27;95018.31;;;9.54;100.00
73941;BME280;62294;48.554;10.202;2023-08-31T03:22:54;95026.50;;;9.52;100.00
73941;BME280;62294;48.554;10.202;2023-08-31T03:25:21;95039.47;;;9.65;100.00
73941;BME280;62294;48.554;10.202;2023-08-31T03:27:47;95037.41;;;9.67;100.00
73941;BME280;62294;48.554;10.202;2023-08-31T03:30:13;95042.38;;;9.64;100.00
73941;BME280;62294;48.554;10.202;2023-08-31T03:32:40;95049.78;;;9.62;100.00
73941;BME280;62294;48.554;10.202;2023-08-31T03:35:06;95050.03;;;9.60;100.00
73941;BME280;62294;48.554;10.202;2023-08-31T03:37:33;95044.16;;;9.58;100.00
73941;BME280;62294;48.554;10.202;2023-08-31T03:40:00;95050.59;;;9.62;100.00
73941;BME280;62294;48.554;10.202;2023-08-31T03:42:26;95049.06;;;9.66;100.00
73941;BME280;62294;48.554;10.202;2023-08-31T03:44:53;95057.22;;;9.76;100.00
73941;BME280;62294;48.554;10.202;2023-08-31T03:47:19;95053.50;;;9.77;100.00
73941;BME280;62294;48.554;10.202;2023-08-31T03:49:46;95049.16;;;9.71;100.00
73941;BME280;62294;48.554;10.202;2023-08-31T03:52:12;95049.63;;;9.68;100.00
73941;BME280;62294;48.554;10.202;2023-08-31T03:54:39;95048.28;;;9.54;100.00
73941;BME280;62294;48.554;10.202;2023-08-31T03:57:06;95049.41;;;9.42;100.00
73941;BME280;62294;48.554;10.202;2023-08-31T03:59:32;95051.63;;;9.33;100.00
73941;BME280;62294;48.554;10.202;2023-08-31T04:01:59;95051.03;;;9.31;100.00
73941;BME280;62294;48.554;10.202;2023-08-31T04:04:25;95056.25;;;9.26;100.00
73941;BME280;62294;48.554;10.202;2023-08-31T04:06:52;95055.19;;;9.27;100.00
73941;BME280;62294;48.554;10.202;2023-08-31T04:09:18;95058.81;;;9.49;100.00
73941;BME280;62294;48.554;10.202;2023-08-31T04:11:45;95055.53;;;9.59;100.00
73941;BME280;62294;48.554;10.202;2023-08-31T04:14:12;95058.66;;;9.67;100.00
73941;BME280;62294;48.554;10.202;2023-08-31T04:16:39;95062.09;;;9.68;100.00
73941;BME280;62294;48.554;10.202;2023-08-31T04:19:06;95077.28;;;9.72;100.00
73941;BME280;62294;48.554;10.202;2023-08-31T04:21:32;95093.06;;;9.79;100.00
73941;BME280;62294;48.554;10.202;2023-08-31T04:23:59;95092.94;;;9.85;100.00
73941;BME280;62294;48.554;10.202;2023-08-31T04:26:26;95097.28;;;9.91;100.00
73941;BME280;62294;48.554;10.202;2023-08-31T04:28:54;95111.53;;;9.85;100.00
73941;BME280;62294;48.554;10.202;2023-08-31T04:31:20;95105.16;;;9.86;100.00
73941;BME280;62294;48.554;10.202;2023-08-31T04:33:47;95113.47;;;9.90;100.00
73941;BME280;62294;48.554;10.202;2023-08-31T04:36:14;95118.06;;;9.94;100.00
73941;BME280;62294;48.554;10.202;2023-08-31T04:38:41;95104.97;;;10.05;100.00
73941;BME280;62294;48.554;10.202;2023-08-31T04:41:08;95113.88;;;9.98;100.00
73941;BME280;62294;48.554;10.202;2023-08-31T04:43:35;95111.13;;;9.93;100.00
73941;BME280;62294;48.554;10.202;2023-08-31T04:46:01;95112.16;;;9.92;100.00
73941;BME280;62294;48.554;10.202;2023-08-31T04:48:30;95101.53;;;9.92;100.00
73941;BME280;62294;48.554;10.202;2023-08-31T04:50:57;95110.00;;;9.89;100.00
73941;BME280;62294;48.554;10.202;2023-08-31T04:53:24;95109.66;;;9.86;100.00
73941;BME280;62294;48.554;10.202;2023-08-31T04:55:50;95117.44;;;9.76;100.00
73941;BME280;62294;48.554;10.202;2023-08-31T04:58:17;95113.66;;;9.72;100.00
73941;BME280;62294;48.554;10.202;2023-08-31T05:00:44;95123.50;;;9.88;100.00
73941;BME280;62294;48.554;10.202;2023-08-31T05:03:10;95123.78;;;10.03;100.00
73941;BME280;62294;48.554;10.202;2023-08-31T05:05:38;95134.84;;;10.12;100.00
73941;BME280;62294;48.554;10.202;2023-08-31T05:08:04;95131.16;;;10.13;100.00
73941;BME280;62294;48.554;10.202;2023-08-31T05:10:31;95125.41;;;10.32;100.00
73941;BME280;62294;48.554;10.202;2023-08-31T05:12:58;95125.19;;;10.50;100.00
73941;BME280;62294;48.554;10.202;2023-08-31T05:15:25;95130.03;;;10.70;100.00
73941;BME280;62294;48.554;10.202;2023-08-31T05:17:53;95125.97;;;10.84;100.00
73941;BME280;62294;48.554;10.202;2023-08-31T05:20:20;95124.94;;;10.85;100.00
73941;BME280;62294;48.554;10.202;2023-08-31T05:22:49;95123.31;;;10.84;100.00
73941;BME280;62294;48.554;10.202;2023-08-31T05:25:16;95131.53;;;10.83;100.00
73941;BME280;62294;48.554;10.202;2023-08-31T05:27:43;95125.41;;;10.99;100.00
73941;BME280;62294;48.554;10.202;2023-08-31T05:30:09;95122.97;;;11.14;100.00
73941;BME280;62294;48.554;10.202;2023-08-31T05:32:36;95141.84;;;11.12;100.00
73941;BME280;62294;48.554;10.202;2023-08-31T05:35:03;95132.97;;;11.07;100.00
73941;BME280;62294;48.554;10.202;2023-08-31T05:37:33;95135.97;;;11.32;100.00
73941;BME280;62294;48.554;10.202;2023-08-31T05:40:02;95130.47;;;11.38;100.00
73941;BME280;62294;48.554;10.202;2023-08-31T05:42:32;95131.63;;;11.43;100.00
73941;BME280;62294;48.554;10.202;2023-08-31T05:44:59;95130.00;;;11.41;100.00
73941;BME280;62294;48.554;10.202;2023-08-31T05:47:25;95129.34;;;11.51;100.00
73941;BME280;62294;48.554;10.202;2023-08-31T05:49:52;95135.97;;;11.32;100.00
73941;BME280;62294;48.554;10.202;2023-08-31T05:52:19;95132.28;;;11.33;100.00
73941;BME280;62294;48.554;10.202;2023-08-31T05:54:45;95146.31;;;11.28;100.00
73941;BME280;62294;48.554;10.202;2023-08-31T05:57:12;95139.88;;;11.24;100.00
73941;BME280;62294;48.554;10.202;2023-08-31T05:59:38;95139.25;;;11.17;100.00
73941;BME280;62294;48.554;10.202;2023-08-31T06:02:05;95142.47;;;11.19;100.00
73941;BME280;62294;48.554;10.202;2023-08-31T06:04:34;95143.03;;;11.21;100.00
73941;BME280;62294;48.554;10.202;2023-08-31T06:07:01;95146.81;;;11.25;100.00
73941;BME280;62294;48.554;10.202;2023-08-31T06:09:28;95144.22;;;11.90;100.00
73941;BME280;62294;48.554;10.202;2023-08-31T06:11:54;95151.31;;;12.87;100.00
73941;BME280;62294;48.554;10.202;2023-08-31T06:14:21;95158.59;;;13.80;100.00
73941;BME280;62294;48.554;10.202;2023-08-31T06:16:47;95172.91;;;14.15;100.00
73941;BME280;62294;48.554;10.202;2023-08-31T06:19:14;95193.44;;;15.63;100.00
73941;BME280;62294;48.554;10.202;2023-08-31T06:21:41;95234.84;;;16.00;100.00
73941;BME280;62294;48.554;10.202;2023-08-31T06:24:08;95264.38;;;15.80;100.00
73941;BME280;62294;48.554;10.202;2023-08-31T06:26:39;95284.94;;;14.99;100.00
73941;BME280;62294;48.554;10.202;2023-08-31T06:29:05;95309.72;;;14.17;100.00
73941;BME280;62294;48.554;10.202;2023-08-31T06:31:32;95325.13;;;12.83;100.00
73941;BME280;62294;48.554;10.202;2023-08-31T06:33:59;95312.09;;;12.87;100.00
73941;BME280;62294;48.554;10.202;2023-08-31T06:36:25;95305.81;;;12.28;100.00
73941;BME280;62294;48.554;10.202;2023-08-31T06:38:52;95296.63;;;12.62;100.00
73941;BME280;62294;48.554;10.202;2023-08-31T06:41:19;95299.66;;;12.71;100.00
73941;BME280;62294;48.554;10.202;2023-08-31T06:43:45;95289.72;;;12.61;100.00
73941;BME280;62294;48.554;10.202;2023-08-31T06:46:12;95283.72;;;12.76;100.00
73941;BME280;62294;48.554;10.202;2023-08-31T06:48:50;95291.63;;;12.93;100.00
73941;BME280;62294;48.554;10.202;2023-08-31T06:51:17;95296.81;;;12.77;100.00
73941;BME280;62294;48.554;10.202;2023-08-31T06:53:44;95282.75;;;12.87;100.00
73941;BME280;62294;48.554;10.202;2023-08-31T06:56:10;95287.47;;;13.02;100.00
73941;BME280;62294;48.554;10.202;2023-08-31T06:58:37;95304.00;;;13.30;100.00
73941;BME280;62294;48.554;10.202;2023-08-31T07:01:07;95323.22;;;13.96;100.00
73941;BME280;62294;48.554;10.202;2023-08-31T07:03:33;95331.41;;;14.21;100.00
73941;BME280;62294;48.554;10.202;2023-08-31T07:06:00;95338.34;;;14.64;100.00
73941;BME280;62294;48.554;10.202;2023-08-31T07:08:27;95357.53;;;14.51;100.00
73941;BME280;62294;48.554;10.202;2023-08-31T07:10:53;95371.94;;;14.50;100.00
73941;BME280;62294;48.554;10.202;2023-08-31T07:13:20;95378.59;;;14.42;100.00
73941;BME280;62294;48.554;10.202;2023-08-31T07:15:47;95386.22;;;13.60;100.00
73941;BME280;62294;48.554;10.202;2023-08-31T07:18:15;95387.28;;;13.06;100.00
73941;BME280;62294;48.554;10.202;2023-08-31T07:20:41;95382.22;;;13.89;100.00
73941;BME280;62294;48.554;10.202;2023-08-31T07:23:08;95402.72;;;13.25;100.00
73941;BME280;62294;48.554;10.202;2023-08-31T07:25:35;95393.84;;;13.73;100.00
73941;BME280;62294;48.554;10.202;2023-08-31T07:28:02;95399.47;;;13.77;100.00
73941;BME280;62294;48.554;10.202;2023-08-31T07:30:29;95409.44;;;13.86;100.00
73941;BME280;62294;48.554;10.202;2023-08-31T07:32:56;95423.97;;;13.42;100.00
73941;BME280;62294;48.554;10.202;2023-08-31T07:35:23;95436.97;;;13.33;100.00
73941;BME280;62294;48.554;10.202;2023-08-31T07:37:49;95432.63;;;13.27;100.00
73941;BME280;62294;48.554;10.202;2023-08-31T07:40:16;95427.16;;;13.39;100.00
73941;BME280;62294;48.554;10.202;2023-08-31T07:42:43;95435.50;;;13.21;100.00
73941;BME280;62294;48.554;10.202;2023-08-31T07:45:09;95431.94;;;13.37;100.00
73941;BME280;62294;48.554;10.202;2023-08-31T07:47:36;95428.94;;;13.55;100.00
73941;BME280;62294;48.554;10.202;2023-08-31T07:50:03;95440.19;;;13.35;100.00
73941;BME280;62294;48.554;10.202;2023-08-31T07:52:30;95450.97;;;13.45;100.00
73941;BME280;62294;48.554;10.202;2023-08-31T07:54:56;95445.88;;;13.97;100.00
73941;BME280;62294;48.554;10.202;2023-08-31T07:57:23;95466.56;;;13.80;100.00
73941;BME280;62294;48.554;10.202;2023-08-31T07:59:50;95474.47;;;13.70;100.00
73941;BME280;62294;48.554;10.202;2023-08-31T08:02:17;95483.63;;;13.52;100.00
73941;BME280;62294;48.554;10.202;2023-08-31T08:04:46;95493.59;;;13.62;100.00
73941;BME280;62294;48.554;10.202;2023-08-31T08:07:13;95506.22;;;14.25;100.00
73941;BME280;62294;48.554;10.202;2023-08-31T08:09:40;95522.13;;;14.37;100.00
73941;BME280;62294;48.554;10.202;2023-08-31T08:12:06;95538.00;;;14.90;100.00
73941;BME280;62294;48.554;10.202;2023-08-31T08:14:33;95562.41;;;14.93;100.00
73941;BME280;62294;48.554;10.202;2023-08-31T08:17:00;95569.84;;;15.33;100.00
73941;BME280;62294;48.554;10.202;2023-08-31T08:19:27;95603.69;;;14.71;100.00
73941;BME280;62294;48.554;10.202;2023-08-31T08:21:53;95610.84;;;14.97;100.00
73941;BME280;62294;48.554;10.202;2023-08-31T08:24:20;95621.38;;;15.45;100.00
73941;BME280;62294;48.554;10.202;2023-08-31T08:26:47;95619.56;;;16.28;100.00
73941;BME280;62294;48.554;10.202;2023-08-31T08:29:13;95640.47;;;16.21;100.00
73941;BME280;62294;48.554;10.202;2023-08-31T08:31:42;95638.97;;;16.60;100.00
73941;BME280;62294;48.554;10.202;2023-08-31T08:34:09;95672.78;;;16.56;100.00
73941;BME280;62294;48.554;10.202;2023-08-31T08:36:35;95682.50;;;17.08;100.00
73941;BME280;62294;48.554;10.202;2023-08-31T08:39:01;95695.88;;;17.48;100.00
73941;BME280;62294;48.554;10.202;2023-08-31T08:41:29;95719.06;;;16.26;100.00
73941;BME280;62294;48.554;10.202;2023-08-31T08:43:57;95714.72;;;16.97;100.00
73941;BME280;62294;48.554;10.202;2023-08-31T08:46:27;95724.84;;;18.11;100.00
73941;BME280;62294;48.554;10.202;2023-08-31T08:48:55;95741.78;;;16.91;100.00
73941;BME280;62294;48.554;10.202;2023-08-31T08:51:22;95754.50;;;17.41;100.00
73941;BME280;62294;48.554;10.202;2023-08-31T08:53:50;95769.50;;;17.17;100.00
73941;BME280;62294;48.554;10.202;2023-08-31T08:56:17;95767.38;;;17.44;100.00
73941;BME280;62294;48.554;10.202;2023-08-31T08:58:43;95787.28;;;17.53;100.00
73941;BME280;62294;48.554;10.202;2023-08-31T09:01:10;95796.94;;;17.49;100.00
73941;BME280;62294;48.554;10.202;2023-08-31T09:03:37;95804.75;;;17.60;100.00
73941;BME280;62294;48.554;10.202;2023-08-31T09:06:04;95820.34;;;17.84;100.00
73941;BME280;62294;48.554;10.202;2023-08-31T09:08:34;95822.47;;;16.59;100.00
73941;BME280;62294;48.554;10.202;2023-08-31T09:11:03;95827.06;;;15.80;100.00
73941;BME280;62294;48.554;10.202;2023-08-31T09:13:29;95827.94;;;15.86;100.00
73941;BME280;62294;48.554;10.202;2023-08-31T09:15:56;95835.22;;;16.89;100.00
73941;BME280;62294;48.554;10.202;2023-08-31T09:18:31;95846.41;;;17.53;100.00
73941;BME280;62294;48.554;10.202;2023-08-31T09:21:01;95854.41;;;18.64;100.00
73941;BME280;62294;48.554;10.202;2023-08-31T09:23:28;95862.25;;;20.35;100.00
73941;BME280;62294;48.554;10.202;2023-08-31T09:25:55;95883.44;;;19.85;100.00
73941;BME280;62294;48.554;10.202;2023-08-31T09:28:24;95882.69;;;19.30;100.00
73941;BME280;62294;48.554;10.202;2023-08-31T09:30:53;95879.31;;;18.99;100.00
73941;BME280;62294;48.554;10.202;2023-08-31T09:33:28;95878.56;;;19.48;100.00
73941;BME280;62294;48.554;10.202;2023-08-31T09:36:00;95886.03;;;20.00;100.00
73941;BME280;62294;48.554;10.202;2023-08-31T09:38:28;95877.22;;;18.91;100.00
73941;BME280;62294;48.554;10.202;2023-08-31T09:41:06;95884.28;;;19.41;100.00
73941;BME280;62294;48.554;10.202;2023-08-31T09:43:33;95884.44;;;20.32;100.00
73941;BME280;62294;48.554;10.202;2023-08-31T09:46:00;95894.63;;;19.14;100.00
73941;BME280;62294;48.554;10.202;2023-08-31T09:48:29;95894.75;;;19.43;100.00
73941;BME280;62294;48.554;10.202;2023-08-31T09:50:57;95895.56;;;20.55;100.00
73941;BME280;62294;48.554;10.202;2023-08-31T09:53:24;95921.69;;;19.92;100.00
73941;BME280;62294;48.554;10.202;2023-08-31T09:55:54;95917.91;;;18.60;100.00
73941;BME280;62294;48.554;10.202;2023-08-31T09:58:22;95907.03;;;19.05;100.00
73941;BME280;62294;48.554;10.202;2023-08-31T10:00:51;95896.00;;;18.96;100.00
73941;BME280;62294;48.554;10.202;2023-08-31T10:03:20;95905.16;;;19.64;100.00
73941;BME280;62294;48.554;10.202;2023-08-31T10:05:49;95898.13;;;19.09;100.00
73941;BME280;62294;48.554;10.202;2023-08-31T10:08:17;95903.31;;;19.99;100.00
73941;BME280;62294;48.554;10.202;2023-08-31T10:10:44;95916.69;;;20.09;100.00
73941;BME280;62294;48.554;10.202;2023-08-31T10:13:11;95914.69;;;18.58;100.00
73941;BME280;62294;48.554;10.202;2023-08-31T10:15:41;95909.31;;;18.37;100.00
73941;BME280;62294;48.554;10.202;2023-08-31T10:18:09;95910.06;;;19.96;100.00
73941;BME280;62294;48.554;10.202;2023-08-31T10:20:36;95922.75;;;19.52;100.00
73941;BME280;62294;48.554;10.202;2023-08-31T10:23:04;95912.13;;;22.82;100.00
73941;BME280;62294;48.554;10.202;2023-08-31T10:28:17;95926.28;;;19.47;100.00
73941;BME280;62294;48.554;10.202;2023-08-31T10:31:04;95921.72;;;19.38;100.00
73941;BME280;62294;48.554;10.202;2023-08-31T10:33:33;95919.59;;;21.51;100.00
73941;BME280;62294;48.554;10.202;2023-08-31T10:35:59;95923.69;;;22.74;100.00
73941;BME280;62294;48.554;10.202;2023-08-31T10:38:31;95921.75;;;20.54;100.00
73941;BME280;62294;48.554;10.202;2023-08-31T10:46:31;95926.59;;;24.66;100.00
73941;BME280;62294;48.554;10.202;2023-08-31T10:49:13;95901.56;;;26.67;100.00
73941;BME280;62294;48.554;10.202;2023-08-31T10:51:45;95908.97;;;25.81;100.00
73941;BME280;62294;48.554;10.202;2023-08-31T10:54:21;95927.44;;;24.53;100.00
73941;BME280;62294;48.554;10.202;2023-08-31T10:57:01;95917.56;;;24.13;100.00
73941;BME280;62294;48.554;10.202;2023-08-31T10:59:49;95909.22;;;23.73;100.00
73941;BME280;62294;48.554;10.202;2023-08-31T11:02:38;95907.53;;;25.19;100.00
73941;BME280;62294;48.554;10.202;2023-08-31T11:05:16;95922.72;;;23.24;100.00
73941;BME280;62294;48.554;10.202;2023-08-31T11:07:47;95920.13;;;23.46;100.00
73941;BME280;62294;48.554;10.202;2023-08-31T11:10:18;95920.63;;;22.62;100.00
73941;BME280;62294;48.554;10.202;2023-08-31T11:12:48;95923.28;;;22.80;100.00
73941;BME280;62294;48.554;10.202;2023-08-31T11:15:19;95922.78;;;22.46;100.00
73941;BME280;62294;48.554;10.202;2023-08-31T11:17:48;95926.34;;;23.06;100.00
73941;BME280;62294;48.554;10.202;2023-08-31T11:20:17;95925.63;;;23.14;100.00
73941;BME280;62294;48.554;10.202;2023-08-31T11:22:47;95927.75;;;22.07;100.00
73941;BME280;62294;48.554;10.202;2023-08-31T11:25:17;95920.34;;;23.36;100.00
73941;BME280;62294;48.554;10.202;2023-08-31T11:28:01;95917.88;;;23.07;100.00
73941;BME280;62294;48.554;10.202;2023-08-31T11:30:30;95918.25;;;23.82;100.00
73941;BME280;62294;48.554;10.202;2023-08-31T11:33:03;95907.41;;;25.32;100.00
73941;BME280;62294;48.554;10.202;2023-08-31T11:35:36;95910.09;;;25.24;100.00
73941;BME280;62294;48.554;10.202;2023-08-31T11:38:03;95903.03;;;25.14;100.00
73941;BME280;62294;48.554;10.202;2023-08-31T11:40:31;95907.22;;;24.37;100.00
73941;BME280;62294;48.554;10.202;2023-08-31T11:42:58;95919.09;;;23.15;100.00
73941;BME280;62294;48.554;10.202;2023-08-31T11:45:30;95917.97;;;23.16;100.00
73941;BME280;62294;48.554;10.202;2023-08-31T11:47:57;95915.09;;;23.53;100.00
73941;BME280;62294;48.554;10.202;2023-08-31T11:50:25;95916.09;;;24.51;100.00
73941;BME280;62294;48.554;10.202;2023-08-31T11:52:53;95931.22;;;20.80;100.00
73941;BME280;62294;48.554;10.202;2023-08-31T11:55:21;95924.50;;;21.49;100.00
73941;BME280;62294;48.554;10.202;2023-08-31T11:57:54;95915.81;;;22.08;100.00
73941;BME280;62294;48.554;10.202;2023-08-31T12:00:22;95927.31;;;20.34;100.00
73941;BME280;62294;48.554;10.202;2023-08-31T12:02:59;95918.09;;;22.97;100.00
73941;BME280;62294;48.554;10.202;2023-08-31T12:05:26;95918.28;;;23.14;100.00
73941;BME280;62294;48.554;10.202;2023-08-31T12:07:56;95926.63;;;22.91;100.00
73941;BME280;62294;48.554;10.202;2023-08-31T12:10:26;95916.34;;;24.19;100.00
73941;BME280;62294;48.554;10.202;2023-08-31T12:12:53;95908.38;;;24.97;100.00
73941;BME280;62294;48.554;10.202;2023-08-31T12:15:22;95928.09;;;22.19;100.00
73941;BME280;62294;48.554;10.202;2023-08-31T12:17:49;95934.00;;;21.46;100.00
73941;BME280;62294;48.554;10.202;2023-08-31T12:20:25;95925.53;;;21.29;100.00
73941;BME280;62294;48.554;10.202;2023-08-31T12:22:55;95922.00;;;21.95;100.00
73941;BME280;62294;48.554;10.202;2023-08-31T12:25:22;95922.41;;;22.98;100.00
73941;BME280;62294;48.554;10.202;2023-08-31T12:27:48;95918.41;;;23.37;100.00
73941;BME280;62294;48.554;10.202;2023-08-31T12:30:16;95906.94;;;24.03;100.00
73941;BME280;62294;48.554;10.202;2023-08-31T12:32:42;95905.88;;;24.48;100.00
73941;BME280;62294;48.554;10.202;2023-08-31T12:35:09;95937.69;;;20.56;100.00
73941;BME280;62294;48.554;10.202;2023-08-31T12:37:36;95941.41;;;19.38;100.00
73941;BME280;62294;48.554;10.202;2023-08-31T12:40:03;95928.53;;;21.04;100.00
73941;BME280;62294;48.554;10.202;2023-08-31T12:42:33;95938.19;;;19.41;100.00
73941;BME280;62294;48.554;10.202;2023-08-31T12:44:59;95941.16;;;19.83;100.00
73941;BME280;62294;48.554;10.202;2023-08-31T12:47:25;95938.81;;;20.11;100.00
73941;BME280;62294;48.554;10.202;2023-08-31T12:49:52;95929.16;;;21.85;100.00
73941;BME280;62294;48.554;10.202;2023-08-31T12:52:18;95929.38;;;21.89;100.00
73941;BME280;62294;48.554;10.202;2023-08-31T12:54:45;95918.56;;;22.72;100.00
73941;BME280;62294;48.554;10.202;2023-08-31T12:57:11;95916.06;;;22.89;100.00
73941;BME280;62294;48.554;10.202;2023-08-31T12:59:38;95925.78;;;23.36;100.00